Time;durP1;ratioP1;P1;durP2;ratioP2;P2;SDS_P1;SDS_P2;PMS_P1;PMS_P2;Temp;Humidity;BMP_temperature;BMP_pressure;BME280_temperature;BME280_humidity;BME280_pressure;Samples;Min_cycle;Max_cycle;Signal;HPM_P1;HPM_P2
2021/04/17 00:01:01;;;;;;;5.82;4.47;;;;;;;;;;4991050;28;20397;-73
2021/04/17 00:03:27;;;;;;;5.72;4.50;;;;;;;;;;4990446;28;20767;-73
2021/04/17 00:05:53;;;;;;;5.82;4.53;;;;;;;;;;4991927;28;20437;-72
2021/04/17 00:08:19;;;;;;;6.05;4.82;;;2.70;99.90;;;;;;4990950;28;20425;-73
2021/04/17 00:10:45;;;;;;;6.43;4.73;;;;;;;;;;4990289;28;20434;-72
2021/04/17 00:13:11;;;;;;;5.20;4.50;;;;;;;;;;4990996;28;20465;-72
2021/04/17 00:15:37;;;;;;;6.53;5.32;;;;;;;;;;4990212;28;20387;-73
2021/04/17 00:18:03;;;;;;;6.22;5.60;;;;;;;;;;4991164;28;20382;-72
2021/04/17 00:20:29;;;;;;;5.45;4.93;;;;;;;;;;4990199;28;20938;-73
2021/04/17 00:22:55;;;;;;;5.38;4.40;;;;;;;;;;4991013;28;20782;-73
2021/04/17 00:25:21;;;;;;;6.30;4.90;;;;;;;;;;4991007;28;20406;-73
2021/04/17 00:27:47;;;;;;;6.22;4.88;;;;;;;;;;4989759;28;20441;-72
2021/04/17 00:30:14;;;;;;;5.82;5.03;;;;;;;;;;4990617;28;20493;-72
2021/04/17 00:32:40;;;;;;;6.40;5.05;;;;;;;;;;4990181;28;20375;-73
2021/04/17 00:35:06;;;;;;;6.07;5.00;;;;;;;;;;4991229;28;20374;-72
2021/04/17 00:37:32;;;;;;;5.97;5.00;;;;;;;;;;4990033;28;20378;-71
2021/04/17 00:39:58;;;;;;;5.90;5.00;;;;;;;;;;4990290;28;20940;-71
2021/04/17 00:42:24;;;;;;;6.60;5.00;;;;;;;;;;4990842;28;20375;-71
2021/04/17 00:44:50;;;;;;;5.13;4.63;;;;;;;;;;4990381;28;20402;-72
2021/04/17 00:47:16;;;;;;;6.32;5.50;;;;;;;;;;4990581;28;20446;-71
2021/04/17 00:49:42;;;;;;;6.50;5.15;;;;;;;;;;4990067;28;20410;-71
2021/04/17 00:52:09;;;;;;;7.90;6.13;;;;;;;;;;4990777;28;20461;-72
2021/04/17 00:54:35;;;;;;;5.73;4.70;;;;;;;;;;4990113;28;20456;-71
2021/04/17 00:57:01;;;;;;;6.10;4.78;;;;;;;;;;4991151;28;20410;-71
2021/04/17 00:59:27;;;;;;;5.50;4.10;;;;;;;;;;4989901;28;20432;-73
2021/04/17 01:01:53;;;;;;;6.70;4.75;;;;;;;;;;4990714;28;20391;-73
2021/04/17 01:04:25;;;;;;;5.70;5.20;;;;;;;;;;4990302;28;20385;-73
2021/04/17 01:07:17;;;;;;;7.10;5.07;;;;;;;;;;4989911;28;20383;-73
2021/04/17 01:09:48;;;;;;;6.90;5.10;;;;;;;;;;4987810;28;20418;-73
2021/04/17 01:12:22;;;;;;;5.35;4.43;;;;;;;;;;4990478;28;20382;-72
2021/04/17 01:14:50;;;;;;;5.47;4.85;;;;;;;;;;4989827;28;20739;-72
2021/04/17 01:17:17;;;;;;;6.40;4.97;;;;;;;;;;4990895;28;20720;-72
2021/04/17 01:19:49;;;;;;;6.68;4.93;;;;;;;;;;4989735;28;20406;-72
2021/04/17 01:22:20;;;;;;;5.50;4.75;;;;;;;;;;4990585;28;20383;-72
2021/04/17 01:24:53;;;;;;;6.20;5.18;;;;;;;;;;4989866;28;20374;-72
2021/04/17 01:27:19;;;;;;;4.80;4.30;;;;;;;;;;4991673;28;20854;-72
2021/04/17 01:29:45;;;;;;;8.38;4.80;;;2.20;99.90;;;;;;4993495;28;20473;-72
2021/04/17 01:32:14;;;;;;;5.75;4.97;;;;;;;;;;4994107;28;20386;-72
2021/04/17 01:34:41;;;;;;;6.70;4.80;;;;;;;;;;4993491;28;20383;-72
2021/04/17 01:37:08;;;;;;;4.70;4.20;;;;;;;;;;4994415;28;20370;-72
2021/04/17 01:39:35;;;;;;;4.90;4.40;;;;;;;;;;4993297;28;20438;-72
2021/04/17 01:42:03;;;;;;;7.13;5.45;;;;;;;;;;4994094;28;20382;-72
2021/04/17 01:44:32;;;;;;;5.60;5.00;;;;;;;;;;4993665;28;20497;-74
2021/04/17 01:47:03;;;;;;;6.63;5.18;;;;;;;;;;4994061;28;20432;-72
2021/04/17 01:49:30;;;;;;;5.88;5.20;;;;;;;;;;4993184;28;20393;-72
2021/04/17 01:51:57;;;;;;;5.57;4.20;;;;;;;;;;4994793;28;20461;-72
2021/04/17 01:54:24;;;;;;;7.65;4.65;;;;;;;;;;4994177;28;20379;-73
2021/04/17 01:56:52;;;;;;;6.00;4.80;;;;;;;;;;4993298;28;20620;-73
2021/04/17 01:59:21;;;;;;;5.22;4.13;;;;;;;;;;4993609;28;20402;-73
2021/04/17 02:01:47;;;;;;;5.93;4.38;;;;;;;;;;4992952;28;20735;-72
2021/04/17 02:04:13;;;;;;;5.22;4.50;;;;;;;;;;4993405;28;20371;-72
2021/04/17 02:06:39;;;;;;;5.20;4.70;;;;;;;;;;4975572;28;20401;-73
2021/04/17 02:09:05;;;;;;;7.82;5.30;;;;;;;;;;4993176;28;20390;-72
2021/04/17 02:11:32;;;;;;;4.45;3.95;;;;;;;;;;4959811;28;20390;-74
2021/04/17 02:14:00;;;;;;;6.38;5.00;;;2.00;99.90;;;;;;4993766;28;20454;-72
2021/04/17 02:16:29;;;;;;;6.68;4.70;;;;;;;;;;4993898;28;20926;-72
2021/04/17 02:19:03;;;;;;;6.78;4.90;;;;;;;;;;4993009;28;20402;-72
2021/04/17 02:21:32;;;;;;;5.85;5.25;;;;;;;;;;4993758;28;20446;-72
2021/04/17 02:23:59;;;;;;;6.40;5.20;;;;;;;;;;4993415;28;20808;-72
2021/04/17 02:26:25;;;;;;;5.93;4.67;;;;;;;;;;4993620;28;20388;-72
2021/04/17 02:28:51;;;;;;;5.90;4.38;;;;;;;;;;4992917;28;20422;-73
2021/04/17 02:31:18;;;;;;;6.78;5.00;;;;;;;;;;4993709;28;20410;-72
2021/04/17 02:33:44;;;;;;;7.53;5.03;;;;;;;;;;4992991;28;20425;-72
2021/04/17 02:36:10;;;;;;;6.03;5.10;;;;;;;;;;4993490;28;20441;-72
2021/04/17 02:38:36;;;;;;;6.22;4.90;;;;;;;;;;4993073;28;20497;-72
2021/04/17 02:41:02;;;;;;;5.90;4.60;;;;;;;;;;4993647;28;20390;-72
2021/04/17 02:43:28;;;;;;;6.03;4.60;;;;;;;;;;4993252;28;20410;-72
2021/04/17 02:45:54;;;;;;;5.37;4.87;;;;;;;;;;4975247;28;20386;-72
2021/04/17 02:48:20;;;;;;;5.07;4.10;;;;;;;;;;4993349;28;20390;-73
2021/04/17 02:50:46;;;;;;;5.57;4.70;;;;;;;;;;4992628;28;20383;-73
2021/04/17 02:53:12;;;;;;;5.75;5.03;;;;;;;;;;4993414;28;20382;-72
2021/04/17 02:55:38;;;;;;;5.53;4.78;;;;;;;;;;4992272;28;20389;-73
2021/04/17 02:58:04;;;;;;;6.30;5.40;;;;;;;;;;4993077;28;20390;-73
2021/04/17 03:00:30;;;;;;;5.75;4.85;;;;;;;;;;4992997;28;20421;-72
2021/04/17 03:02:56;;;;;;;5.43;4.60;;;;;;;;;;4992363;28;20386;-72
2021/04/17 03:05:22;;;;;;;5.18;4.50;;;;;;;;;;4992992;28;20367;-72
2021/04/17 03:07:49;;;;;;;5.40;4.90;;;;;;;;;;4992180;28;20367;-72
2021/04/17 03:10:15;;;;;;;6.40;5.22;;;;;;;;;;4993018;28;20393;-72
2021/04/17 03:12:41;;;;;;;6.03;4.90;;;;;;;;;;4974923;28;20806;-73
2021/04/17 03:15:08;;;;;;;6.38;5.28;;;;;;;;;;4992794;28;20385;-72
2021/04/17 03:17:34;;;;;;;5.93;4.82;;;;;;;;;;4992822;28;20379;-72
2021/04/17 03:20:01;;;;;;;6.85;5.43;;;;;;;;;;4992622;28;20418;-72
2021/04/17 03:22:27;;;;;;;5.88;5.28;;;;;;;;;;4992684;28;20397;-72
2021/04/17 03:24:53;;;;;;;6.50;5.47;;;;;;;;;;4992384;28;20378;-72
2021/04/17 03:27:20;;;;;;;6.22;5.30;;;1.70;99.90;;;;;;4992652;28;20398;-72
2021/04/17 03:29:46;;;;;;;6.07;5.00;;;;;;;;;;4992044;28;20383;-72
2021/04/17 03:32:12;;;;;;;5.40;4.90;;;;;;;;;;4992598;28;20866;-72
2021/04/17 03:34:38;;;;;;;6.70;5.30;;;;;;;;;;4991605;28;20383;-73
2021/04/17 03:37:04;;;;;;;5.90;4.40;;;;;;;;;;4992499;28;20775;-72
2021/04/17 03:39:30;;;;;;;5.30;4.70;;;;;;;;;;4992190;28;20477;-73
2021/04/17 03:41:56;;;;;;;6.80;5.28;;;;;;;;;;4973957;28;20383;-72
2021/04/17 03:44:22;;;;;;;6.63;4.90;;;;;;;;;;4974319;28;20525;-73
2021/04/17 03:46:48;;;;;;;6.38;4.88;;;;;;;;;;4991587;28;20379;-73
2021/04/17 03:49:14;;;;;;;5.60;4.67;;;;;;;;;;4974608;28;20402;-72
2021/04/17 03:51:40;;;;;;;5.93;4.47;;;;;;;;;;4991039;28;20510;-73
2021/04/17 03:54:06;;;;;;;6.03;5.20;;;;;;;;;;4992139;28;20731;-72
2021/04/17 03:56:33;;;;;;;5.60;4.90;;;;;;;;;;4974427;28;20378;-72
2021/04/17 03:58:59;;;;;;;6.18;5.00;;;;;;;;;;4991377;28;20460;-72
2021/04/17 04:01:24;;;;;;;6.18;4.82;;;1.20;99.90;;;;;;4991863;28;20381;-72
2021/04/17 04:03:50;;;;;;;7.10;5.47;;;;;;;;;;4991861;28;20851;-72
2021/04/17 04:06:18;;;;;;;7.70;5.50;;;;;;;;;;4992563;28;20488;-73
2021/04/17 04:08:44;;;;;;;5.25;4.75;;;;;;;;;;4991561;28;20378;-73
2021/04/17 04:11:10;;;;;;;7.65;5.43;;;;;;;;;;4992118;28;20739;-72
2021/04/17 04:13:36;;;;;;;7.57;5.45;;;;;;;;;;4991892;28;20375;-71
2021/04/17 04:16:02;;;;;;;6.93;5.57;;;;;;;;;;4991555;28;20421;-71
2021/04/17 04:18:28;;;;;;;9.00;6.30;;;;;;;;;;4991789;28;20379;-72
2021/04/17 04:20:54;;;;;;;7.03;5.20;;;;;;;;;;4991359;28;20386;-72
2021/04/17 04:23:20;;;;;;;6.22;5.05;;;1.10;99.90;;;;;;4992111;28;20375;-72
2021/04/17 04:25:46;;;;;;;6.77;5.80;;;0.80;99.90;;;;;;4991423;28;20423;-72
2021/04/17 04:28:12;;;;;;;6.70;5.80;;;;;;;;;;4992030;28;20378;-72
2021/04/17 04:30:38;;;;;;;7.95;6.00;;;;;;;;;;4991951;28;20393;-72
2021/04/17 04:33:04;;;;;;;7.32;5.93;;;;;;;;;;4991313;28;20856;-72
2021/04/17 04:35:30;;;;;;;6.45;5.45;;;;;;;;;;4991855;28;20398;-72
2021/04/17 04:37:56;;;;;;;8.70;5.82;;;1.20;99.90;;;;;;4991019;28;20402;-72
2021/04/17 04:40:21;;;;;;;6.87;5.70;;;1.00;99.90;;;;;;4991866;28;20430;-72
2021/04/17 04:42:47;;;;;;;8.60;6.00;;;;;;;;;;4973672;28;20473;-72
2021/04/17 04:45:13;;;;;;;6.72;5.50;;;;;;;;;;4992281;28;20708;-73
2021/04/17 04:47:40;;;;;;;7.50;5.45;;;;;;;;;;4991927;28;20387;-72
2021/04/17 04:50:08;;;;;;;6.53;5.80;;;1.20;99.90;;;;;;4991790;28;20434;-72
2021/04/17 04:52:34;;;;;;;6.50;5.30;;;;;;;;;;4991314;28;20383;-72
2021/04/17 04:55:00;;;;;;;6.47;5.45;;;;;;;;;;4990820;28;20385;-72
2021/04/17 04:57:26;;;;;;;5.82;5.20;;;;;;;;;;4991520;28;20454;-71
2021/04/17 04:59:52;;;;;;;5.95;5.35;;;;;;;;;;4991026;28;20504;-72
2021/04/17 05:02:18;;;;;;;6.05;5.45;;;1.00;99.90;;;;;;4992643;28;20575;-72
2021/04/17 05:04:44;;;;;;;6.30;4.82;;;1.10;99.90;;;;;;4994839;28;20469;-72
2021/04/17 05:07:10;;;;;;;6.45;5.30;;;;;;;;;;4995615;28;20697;-71
2021/04/17 05:09:36;;;;;;;7.13;5.60;;;;;;;;;;4975771;28;20414;-72
2021/04/17 05:12:02;;;;;;;6.28;4.90;;;;;;;;;;4994720;28;20388;-72
2021/04/17 05:14:28;;;;;;;6.10;4.80;;;;;;;;;;4994991;28;20385;-72
2021/04/17 05:16:54;;;;;;;7.22;5.70;;;;;;;;;;4994011;28;20371;-72
2021/04/17 05:19:19;;;;;;;6.43;5.43;;;1.10;99.90;;;;;;4994930;28;20504;-71
2021/04/17 05:21:46;;;;;;;7.70;5.70;;;;;;;;;;4994116;28;20731;-73
2021/04/17 05:24:12;;;;;;;6.20;5.03;;;;;;;;;;4994978;28;20382;-71
2021/04/17 05:26:38;;;;;;;5.95;4.93;;;;;;;;;;4994866;28;20877;-71
2021/04/17 05:29:05;;;;;;;6.40;5.70;;;;;;;;;;4976651;28;20390;-71
2021/04/17 05:31:31;;;;;;;7.07;5.40;;;;;;;;;;4994907;28;20378;-71
2021/04/17 05:33:57;;;;;;;8.23;6.03;;;;;;;;;;4993937;28;20375;-71
2021/04/17 05:36:23;;;;;;;7.70;5.80;;;;;;;;;;4994679;28;20374;-71
2021/04/17 05:38:52;;;;;;;8.80;6.53;;;1.50;99.90;;;;;;4993857;28;20530;-72
2021/04/17 05:41:18;;;;;;;7.90;5.82;;;;;;;;;;4994622;28;20392;-71
2021/04/17 05:43:44;;;;;;;8.20;5.65;;;;;;;;;;4994694;28;20406;-73
2021/04/17 05:46:10;;;;;;;8.55;6.20;;;;;;;;;;4969329;28;20406;-71
2021/04/17 05:48:36;;;;;;;8.35;5.93;;;;;;;;;;4989170;28;20395;-71
2021/04/17 05:51:03;;;;;;;7.35;6.05;;;;;;;;;;4992859;28;20379;-72
2021/04/17 05:53:28;;;;;;;8.13;6.55;;;2.30;99.90;;;;;;4984074;28;20410;-71
2021/04/17 05:55:54;;;;;;;7.93;5.90;;;2.10;99.90;;;;;;4993058;28;20413;-72
2021/04/17 05:58:20;;;;;;;6.90;5.60;;;;;;;;;;4993977;28;20419;-71
2021/04/17 06:00:46;;;;;;;7.43;5.80;;;;;;;;;;4993608;28;20394;-73
2021/04/17 06:03:12;;;;;;;7.67;6.00;;;;;;;;;;4993509;28;20385;-71
2021/04/17 06:05:38;;;;;;;7.57;5.88;;;2.80;99.90;;;;;;4993737;28;20386;-71
2021/04/17 06:08:04;;;;;;;9.37;6.60;;;2.90;99.90;;;;;;4993331;28;20390;-71
2021/04/17 06:10:30;;;;;;;7.70;6.40;;;;;;;;;;4993142;28;20418;-71
2021/04/17 06:12:56;;;;;;;7.53;5.93;;;;;;;;;;4958133;28;20443;-71
2021/04/17 06:15:23;;;;;;;8.32;6.50;;;;;;;;;;4974511;28;20376;-73
2021/04/17 06:17:49;;;;;;;8.93;6.35;;;;;;;;;;4974068;28;20431;-73
2021/04/17 06:20:15;;;;;;;8.70;6.50;;;;;;;;;;4974804;28;20453;-71
2021/04/17 06:22:42;;;;;;;6.45;5.75;;;;;;;;;;4957497;28;20435;-72
2021/04/17 06:25:10;;;;;;;7.85;5.60;;;3.30;99.90;;;;;;4974199;28;20372;-73
2021/04/17 06:27:35;;;;;;;7.22;5.65;;;3.30;99.90;;;;;;4974928;28;20434;-70
2021/04/17 06:30:02;;;;;;;8.07;6.22;;;;;;;;;;4974093;28;20944;-71
2021/04/17 06:32:28;;;;;;;8.45;6.07;;;;;;;;;;4957212;28;20388;-71
2021/04/17 06:34:54;;;;;;;8.65;6.28;;;;;;;;;;4973977;28;20833;-71
2021/04/17 06:37:20;;;;;;;7.88;6.35;;;;;;;;;;4974592;28;20377;-71
2021/04/17 06:39:46;;;;;;;8.30;5.93;;;;;;;;;;4974401;28;20439;-71
2021/04/17 06:42:13;;;;;;;7.75;6.22;;;;;;;;;;4974105;28;20388;-71
2021/04/17 06:44:43;;;;;;;9.80;6.60;;;3.90;99.90;;;;;;4974062;28;20395;-71
2021/04/17 06:47:10;;;;;;;7.25;6.00;;;;;;;;;;4973633;28;20740;-71
2021/04/17 06:49:36;;;;;;;7.28;5.80;;;;;;;;;;4974344;28;20380;-70
2021/04/17 06:52:03;;;;;;;7.50;6.70;;;;;;;;;;4956355;28;20725;-71
2021/04/17 06:54:29;;;;;;;8.20;6.40;;;;;;;;;;4974158;28;20377;-70
2021/04/17 06:56:55;;;;;;;7.93;6.50;;;4.30;99.90;;;;;;4973474;28;20379;-71
2021/04/17 06:59:21;;;;;;;8.15;6.25;;;4.70;99.90;;;;;;4973877;28;20496;-71
2021/04/17 07:01:48;;;;;;;7.15;6.15;;;;;;;;;;4980740;28;20751;-72
2021/04/17 07:04:14;;;;;;;6.85;5.65;;;4.30;99.90;;;;;;4985054;28;20446;-70
2021/04/17 07:06:40;;;;;;;7.45;5.47;;;;;;;;;;4987746;28;20457;-71
2021/04/17 07:09:07;;;;;;;7.15;5.32;;;;;;;;;;4991787;28;20465;-71
2021/04/17 07:11:33;;;;;;;6.60;5.25;;;;;;;;;;4992928;28;20371;-71
2021/04/17 07:14:11;;;;;;;7.40;5.63;;;4.80;99.90;;;;;;4992187;28;20379;-71
2021/04/17 07:16:56;;;;;;;6.43;5.30;;;;;;;;;;4992811;28;20393;-72
2021/04/17 07:19:22;;;;;;;6.95;5.60;;;;;;;;;;4992645;28;20506;-71
2021/04/17 07:21:49;;;;;;;7.38;5.88;;;;;;;;;;4991856;28;20394;-74
2021/04/17 07:24:32;;;;;;;8.10;5.38;;;4.80;99.90;;;;;;4992186;28;20407;-71
2021/04/17 07:26:58;;;;;;;6.10;4.88;;;;;;;;;;4970127;28;20424;-72
2021/04/17 07:29:24;;;;;;;9.57;5.95;;;;;;;;;;4987716;28;20739;-71
2021/04/17 07:31:54;;;;;;;8.38;6.50;;;;;;;;;;5004902;28;20535;-72
2021/04/17 07:34:22;;;;;;;7.00;5.20;;;5.40;99.90;;;;;;4986831;28;20390;-72
2021/04/17 07:36:52;;;;;;;6.95;5.53;;;;;;;;;;4976180;28;20475;-74
2021/04/17 07:39:35;;;;;;;5.82;5.03;;;5.20;99.90;;;;;;4986166;28;20418;-72
2021/04/17 07:42:07;;;;;;;7.82;6.15;;;;;;;;;;4983487;28;20711;-72
2021/04/17 07:44:37;;;;;;;7.70;5.80;;;5.50;99.90;;;;;;4973393;28;20416;-72
2021/04/17 07:47:03;;;;;;;8.50;5.82;;;;;;;;;;4972526;28;20443;-72
2021/04/17 07:49:29;;;;;;;6.50;5.22;;;;;;;;;;4973130;28;20376;-72
2021/04/17 07:52:11;;;;;;;7.03;5.22;;;5.50;99.90;;;;;;4972617;28;20369;-72
2021/04/17 07:54:40;;;;;;;7.65;5.70;;;;;;;;;;4973127;28;20391;-72
2021/04/17 07:57:09;;;;;;;6.80;5.23;;;5.70;99.90;;;;;;4972232;28;20733;-72
2021/04/17 07:59:36;;;;;;;7.37;5.33;;;6.30;99.90;;;;;;4972897;28;20454;-71
2021/04/17 08:02:03;;;;;;;6.20;5.30;;;6.30;99.90;;;;;;4983282;28;20390;-72
2021/04/17 08:04:29;;;;;;;7.32;5.28;;;;;;;;;;4992235;28;20386;-71
2021/04/17 08:06:56;;;;;;;7.25;5.68;;;;;;;;;;4991709;28;20374;-72
2021/04/17 08:09:22;;;;;;;6.10;5.25;;;;;;;;;;4992244;28;20770;-72
2021/04/17 08:11:50;;;;;;;6.70;5.20;;;;;;;;;;4992214;28;20392;-72
2021/04/17 08:14:16;;;;;;;8.35;5.53;;;;;;;;;;4991578;28;20664;-72
2021/04/17 08:16:42;;;;;;;7.45;5.60;;;;;;;;;;4991988;28;20712;-72
2021/04/17 08:19:08;;;;;;;6.63;5.55;;;6.40;99.90;;;;;;4991237;28;20843;-72
2021/04/17 08:21:34;;;;;;;6.90;5.60;;;6.30;99.90;;;;;;4992249;28;20383;-72
2021/04/17 08:24:00;;;;;;;8.70;7.13;;;;;;;;;;4991042;28;20385;-72
2021/04/17 08:26:29;;;;;;;7.25;5.70;;;;;;;;;;4992006;28;20457;-72
2021/04/17 08:28:55;;;;;;;7.93;6.10;;;6.70;99.90;;;;;;4991341;28;20501;-72
2021/04/17 08:31:21;;;;;;;6.80;5.53;;;6.70;99.90;;;;;;4991918;28;20427;-73
2021/04/17 08:34:06;;;;;;;7.00;5.60;;;6.50;99.90;;;;;;4991811;28;20485;-72
2021/04/17 08:36:33;;;;;;;7.55;6.03;;;;;;;;;;4984266;28;22042;-72
2021/04/17 08:38:59;;;;;;;6.60;5.90;;;6.40;99.90;;;;;;4980062;28;20503;-72
2021/04/17 08:41:43;;;;;;;7.30;5.77;;;6.80;99.90;;;;;;4982591;28;20395;-72
2021/04/17 08:44:28;;;;;;;7.95;5.68;;;5.90;99.90;;;;;;4971384;28;20948;-72
2021/04/17 08:46:54;;;;;;;6.97;5.68;;;;;;;;;;4971537;28;20381;-72
2021/04/17 08:49:25;;;;;;;8.27;6.25;;;7.00;99.90;;;;;;4971968;28;20860;-73
2021/04/17 08:51:51;;;;;;;8.50;6.00;;;6.90;99.90;;;;;;4980718;28;20395;-73
2021/04/17 08:54:19;;;;;;;6.35;5.50;;;;;;;;;;4990641;28;20385;-73
2021/04/17 08:56:51;;;;;;;7.93;5.78;;;7.40;99.90;;;;;;4991472;28;20389;-73
2021/04/17 08:59:22;;;;;;;6.82;5.60;;;;;;;;;;4990618;28;20750;-73
2021/04/17 09:01:51;;;;;;;6.68;5.30;;;7.40;99.90;;;;;;4991296;28;20839;-73
2021/04/17 09:04:18;;;;;;;7.20;5.80;;;;;;;;;;4990744;28;20518;-73
2021/04/17 09:06:48;;;;;;;8.65;3.53;;;;;;;;;;4991235;28;20459;-73
2021/04/17 09:09:20;;;;;;;3.95;2.60;;;;;;;;;;4990549;28;20775;-73
2021/04/17 09:11:47;;;;;;;3.08;2.50;;;8.30;99.90;;;;;;4991323;28;20758;-74
2021/04/17 09:14:28;;;;;;;3.63;2.60;;;;;;;;;;4990392;28;20457;-74
2021/04/17 09:16:55;;;;;;;3.90;2.90;;;;;;;;;;4975985;28;20394;-75
2021/04/17 09:19:39;;;;;;;3.83;3.00;;;;;;;;;;4991340;28;20786;-74
2021/04/17 09:22:24;;;;;;;3.33;2.75;;;;;;;;;;4990646;28;20525;-75
2021/04/17 09:25:04;;;;;;;3.80;2.80;;;8.70;99.00;;;;;;4975507;28;20386;-75
2021/04/17 09:27:30;;;;;;;4.20;3.10;;;;;;;;;;4991280;28;20462;-75
2021/04/17 09:30:19;;;;;;;4.13;3.00;;;8.90;98.30;;;;;;4990562;28;20792;-75
2021/04/17 09:32:49;;;;;;;4.00;3.22;;;;;;;;;;4991166;28;20382;-74
2021/04/17 09:35:18;;;;;;;2.88;2.22;;;9.20;98.30;;;;;;4990205;28;20389;-75
2021/04/17 09:37:48;;;;;;;4.90;3.05;;;9.80;96.90;;;;;;4987788;28;20485;-74
2021/04/17 09:40:14;;;;;;;3.20;2.60;;;9.40;99.90;;;;;;4985626;28;20422;-75
2021/04/17 09:42:41;;;;;;;3.03;2.72;;;10.10;99.90;;;;;;4990472;28;20382;-75
2021/04/17 09:45:09;;;;;;;3.90;2.83;;;;;;;;;;4982737;28;20839;-75
2021/04/17 09:47:35;;;;;;;3.75;2.70;;;;;;;;;;4991046;28;20386;-75
2021/04/17 09:50:02;;;;;;;4.88;3.65;;;;;;;;;;4993883;28;20401;-75
2021/04/17 09:52:28;;;;;;;4.13;3.42;;;9.80;99.90;;;;;;4977163;28;20385;-75
2021/04/17 09:54:59;;;;;;;5.47;3.47;;;;;;;;;;4994463;28;20393;-74
2021/04/17 09:57:25;;;;;;;4.85;3.67;;;;;;;;;;4994513;28;20375;-75
2021/04/17 09:59:52;;;;;;;5.07;3.72;;;;;;;;;;4994302;28;20406;-76
2021/04/17 10:02:18;;;;;;;4.45;3.33;;;;;;;;;;5008663;28;20387;-75
2021/04/17 10:04:57;;;;;;;4.60;3.30;;;10.50;95.40;;;;;;4994428;28;20398;-75
2021/04/17 10:07:22;;;;;;;4.70;3.47;;;9.80;99.90;;;;;;4993916;28;20379;-76
2021/04/17 10:10:03;;;;;;;3.70;3.30;;;;;;;;;;4990450;28;20417;-76
2021/04/17 10:12:29;;;;;;;4.15;3.30;;;10.30;98.40;;;;;;4990540;28;20395;-74
2021/04/17 10:15:14;;;;;;;4.13;3.27;;;;;;;;;;4987463;28;20784;-76
2021/04/17 10:17:40;;;;;;;3.80;3.10;;;10.30;93.90;;;;;;4993623;28;20805;-75
2021/04/17 10:20:06;;;;;;;5.20;3.70;;;10.40;98.20;;;;;;4975497;28;20493;-76
2021/04/17 10:22:32;;;;;;;4.00;3.13;;;;;;;;;;4993695;28;20449;-75
2021/04/17 10:24:58;;;;;;;3.58;3.00;;;;;;;;;;4991920;28;20386;-76
2021/04/17 10:27:24;;;;;;;4.55;3.60;;;;;;;;;;4986930;28;20380;-73
2021/04/17 10:29:52;;;;;;;3.70;3.30;;;;;;;;;;4989263;28;20441;-73
2021/04/17 10:32:19;;;;;;;4.63;3.00;;;;;;;;;;4983751;28;20410;-74
2021/04/17 10:34:50;;;;;;;5.65;3.83;;;;;;;;;;4988774;28;20409;-74
2021/04/17 10:37:17;;;;;;;4.00;3.55;;;10.70;93.70;;;;;;4968432;28;20406;-74
2021/04/17 10:39:59;;;;;;;4.22;3.60;;;;;;;;;;4993592;28;20888;-74
2021/04/17 10:42:25;;;;;;;4.47;3.80;;;;;;;;;;4993289;28;20383;-76
2021/04/17 10:44:55;;;;;;;4.45;4.05;;;10.70;90.90;;;;;;4993127;28;20398;-75
2021/04/17 10:47:22;;;;;;;4.00;3.50;;;11.00;97.50;;;;;;4975293;28;20481;-76
2021/04/17 10:49:48;;;;;;;6.25;3.80;;;10.70;95.30;;;;;;4993320;28;20518;-75
2021/04/17 10:52:27;;;;;;;4.55;3.70;;;;;;;;;;4992860;28;20411;-74
2021/04/17 10:54:54;;;;;;;4.47;3.53;;;;;;;;;;4978413;28;20390;-74
2021/04/17 10:57:20;;;;;;;4.60;3.50;;;11.80;94.10;;;;;;4992553;28;20387;-74
2021/04/17 10:59:56;;;;;;;3.78;3.38;;;10.90;89.10;;;;;;4992926;28;20917;-74
2021/04/17 11:02:23;;;;;;;4.88;3.63;;;;;;;;;;4988558;28;20414;-74
2021/04/17 11:04:49;;;;;;;3.95;3.15;;;11.00;93.70;;;;;;4987573;28;20413;-74
2021/04/17 11:07:15;;;;;;;4.93;3.60;;;11.40;96.80;;;;;;4992630;28;20418;-75
2021/04/17 11:09:50;;;;;;;4.80;3.30;;;;;;;;;;4992872;28;20481;-75
2021/04/17 11:12:28;;;;;;;5.88;3.55;;;12.00;93.20;;;;;;4974981;28;20787;-75
2021/04/17 11:15:21;;;;;;;3.85;3.30;;;12.90;93.20;;;;;;4986180;28;20424;-75
2021/04/17 11:18:13;;;;;;;4.47;3.77;;;13.80;95.10;;;;;;4984619;28;20676;-75
2021/04/17 11:20:43;;;;;;;4.00;3.30;;;;;;;;;;4986157;28;20410;-75
2021/04/17 11:23:31;;;;;;;4.80;3.50;;;13.20;80.10;;;;;;4983502;28;20390;-76
2021/04/17 11:25:58;;;;;;;5.60;3.85;;;12.70;83.80;;;;;;4992247;28;20724;-75
2021/04/17 11:28:24;;;;;;;4.32;3.92;;;;;;;;;;4991726;28;20383;-76
2021/04/17 11:30:51;;;;;;;6.07;3.40;;;;;;;;;;4992444;28;20727;-75
2021/04/17 11:33:17;;;;;;;3.47;3.17;;;12.70;89.60;;;;;;4989035;28;20387;-74
2021/04/17 11:35:43;;;;;;;3.60;3.30;;;;;;;;;;4987779;28;20743;-75
2021/04/17 11:38:09;;;;;;;3.90;3.20;;;;;;;;;;4981539;28;20422;-75
2021/04/17 11:40:35;;;;;;;3.60;3.17;;;;;;;;;;4992346;28;20437;-75
2021/04/17 11:43:00;;;;;;;3.38;3.00;;;11.70;92.60;;;;;;4991855;28;20417;-76
2021/04/17 11:45:28;;;;;;;3.22;2.92;;;;;;;;;;4986311;28;20485;-73
2021/04/17 11:47:53;;;;;;;4.13;2.93;;;12.10;95.20;;;;;;4992416;28;20453;-73
2021/04/17 11:50:19;;;;;;;3.60;3.30;;;11.50;95.20;;;;;;4991349;28;20754;-73
2021/04/17 11:52:45;;;;;;;3.67;3.20;;;;;;;;;;4974162;28;20398;-73
2021/04/17 11:55:11;;;;;;;4.23;3.37;;;;;;;;;;4991568;28;20387;-73
2021/04/17 11:57:37;;;;;;;3.75;2.97;;;12.10;92.00;;;;;;4974537;28;20390;-73
2021/04/17 12:00:05;;;;;;;3.00;2.70;;;11.60;94.20;;;;;;4991592;28;20418;-76
2021/04/17 12:02:31;;;;;;;3.40;3.10;;;11.50;94.60;;;;;;4991938;28;20395;-73
2021/04/17 12:04:57;;;;;;;3.67;3.28;;;;;;;;;;4992061;28;20413;-73
2021/04/17 12:07:23;;;;;;;3.70;2.70;;;11.60;92.20;;;;;;4991094;28;20371;-73
2021/04/17 12:09:51;;;;;;;3.00;2.70;;;11.70;94.30;;;;;;4992011;28;20799;-73
2021/04/17 12:12:17;;;;;;;2.73;2.47;;;11.80;94.10;;;;;;4990850;28;20394;-73
2021/04/17 12:14:43;;;;;;;3.00;2.70;;;;;;;;;;4991589;28;20381;-73
2021/04/17 12:17:09;;;;;;;4.03;3.17;;;11.70;93.70;;;;;;4973495;28;20391;-74
2021/04/17 12:19:34;;;;;;;3.57;2.80;;;12.00;93.90;;;;;;4991637;28;20419;-73
2021/04/17 12:22:00;;;;;;;2.60;2.10;;;12.60;92.80;;;;;;4991331;28;20395;-73
2021/04/17 12:24:27;;;;;;;3.25;2.70;;;13.50;93.40;;;;;;4972822;28;20464;-73
2021/04/17 12:26:53;;;;;;;3.67;2.90;;;13.20;91.40;;;;;;4991150;28;20383;-73
2021/04/17 12:29:19;;;;;;;3.08;2.80;;;13.90;95.50;;;;;;4990807;28;20470;-73
2021/04/17 12:31:45;;;;;;;2.42;2.20;;;14.20;90.10;;;;;;4991528;28;20856;-73
2021/04/17 12:34:10;;;;;;;2.60;2.30;;;14.70;88.20;;;;;;4990580;28;20391;-74
2021/04/17 12:36:36;;;;;;;2.80;1.73;;;14.10;89.40;;;;;;4973827;28;20964;-73
2021/04/17 12:39:03;;;;;;;2.50;2.10;;;15.30;87.60;;;;;;4988845;28;20902;-74
2021/04/17 12:41:28;;;;;;;2.30;2.10;;;14.80;84.80;;;;;;4965609;28;20427;-74
2021/04/17 12:43:54;;;;;;;2.90;2.30;;;15.90;90.30;;;;;;4988216;28;20458;-74
2021/04/17 12:46:20;;;;;;;2.80;2.50;;;15.70;82.90;;;;;;4986354;28;20414;-74
2021/04/17 12:48:45;;;;;;;3.57;2.20;;;14.50;79.70;;;;;;4987907;28;20399;-74
2021/04/17 12:51:13;;;;;;;2.97;2.30;;;;;;;;;;4980693;28;20825;-75
2021/04/17 12:53:40;;;;;;;2.75;1.90;;;15.30;77.20;;;;;;4979788;28;20392;-74
2021/04/17 12:56:06;;;;;;;3.22;2.13;;;14.50;90.90;;;;;;4990489;28;20518;-78
2021/04/17 12:58:37;;;;;;;2.50;2.05;;;;;;;;;;4984087;28;20402;-74
2021/04/17 13:01:03;;;;;;;2.45;2.00;;;14.20;84.80;;;;;;4982073;28;20410;-74
2021/04/17 13:03:28;;;;;;;2.25;2.08;;;13.40;83.50;;;;;;4984107;28;20403;-75
2021/04/17 13:05:54;;;;;;;2.42;2.10;;;13.50;84.90;;;;;;4982378;28;20875;-74
2021/04/17 13:08:20;;;;;;;3.00;2.20;;;14.20;85.50;;;;;;4981211;28;20396;-74
2021/04/17 13:10:45;;;;;;;2.97;2.20;;;14.90;87.00;;;;;;4978227;28;20812;-75
2021/04/17 13:13:11;;;;;;;3.50;2.30;;;15.30;83.80;;;;;;4984633;28;20462;-74
2021/04/17 13:15:38;;;;;;;3.92;2.30;;;;;;;;;;4983561;28;20387;-75
2021/04/17 13:18:04;;;;;;;2.20;2.00;;;;;;;;;;4966855;28;20394;-76
2021/04/17 13:20:29;;;;;;;2.50;2.20;;;13.50;83.00;;;;;;4984785;28;20418;-74
2021/04/17 13:22:55;;;;;;;4.28;2.55;;;13.00;84.20;;;;;;4988019;28;20717;-74
2021/04/17 13:25:22;;;;;;;2.50;1.90;;;;;;;;;;4985894;28;20722;-74
2021/04/17 13:27:47;;;;;;;2.30;2.10;;;13.80;82.00;;;;;;4986923;28;20414;-74
2021/04/17 13:30:14;;;;;;;2.10;1.90;;;;;;;;;;4989810;28;20838;-74
2021/04/17 13:32:39;;;;;;;2.20;2.00;;;13.70;84.70;;;;;;4992458;28;20426;-74
2021/04/17 13:35:05;;;;;;;3.15;2.30;;;13.70;85.90;;;;;;4991720;28;20826;-76
2021/04/17 13:37:31;;;;;;;2.28;1.90;;;13.20;85.40;;;;;;4993532;28;20394;-73
2021/04/17 13:39:57;;;;;;;2.10;2.00;;;;;;;;;;4991898;28;20488;-74
2021/04/17 13:42:23;;;;;;;3.17;2.58;;;13.20;86.50;;;;;;4966813;28;20407;-74
2021/04/17 13:44:49;;;;;;;3.45;2.10;;;12.30;86.60;;;;;;4992110;28;20485;-74
2021/04/17 13:47:15;;;;;;;3.20;2.90;;;12.80;90.10;;;;;;4973484;28;20410;-74
2021/04/17 13:49:41;;;;;;;3.28;2.15;;;12.30;95.00;;;;;;4994162;28;20478;-73
2021/04/17 13:52:07;;;;;;;5.65;3.75;;;;;;;;;;4994047;28;20469;-76
2021/04/17 13:54:33;;;;;;;2.80;2.50;;;12.80;88.90;;;;;;4993675;28;20403;-73
2021/04/17 13:56:58;;;;;;;3.03;2.65;;;12.60;89.60;;;;;;4994002;28;20821;-74
2021/04/17 13:59:26;;;;;;;3.47;2.97;;;;;;;;;;4959469;28;20437;-74
2021/04/17 14:01:52;;;;;;;3.30;2.65;;;12.40;88.50;;;;;;4993762;28;20418;-74
2021/04/17 14:04:19;;;;;;;3.00;2.70;;;;;;;;;;4993208;28;20883;-74